sensor_id;sensor_type;location;lat;lon;timestamp;P1;durP1;ratioP1;P2;durP2;ratioP2
16304;SDS011;8261;47.678;-122.174;2022-08-18T00:00:45;4.50;;;1.55;;
16304;SDS011;8261;47.678;-122.174;2022-08-18T00:03:17;6.10;;;1.40;;
16304;SDS011;8261;47.678;-122.174;2022-08-18T00:06:10;1.25;;;1.10;;
16304;SDS011;8261;47.678;-122.174;2022-08-18T00:08:42;2.10;;;1.45;;
16304;SDS011;8261;47.678;-122.174;2022-08-18T00:11:13;3.45;;;1.50;;
16304;SDS011;8261;47.678;-122.174;2022-08-18T00:13:46;2.05;;;1.48;;
16304;SDS011;8261;47.678;-122.174;2022-08-18T00:16:19;1.75;;;1.35;;
16304;SDS011;8261;47.678;-122.174;2022-08-18T00:18:50;1.88;;;1.35;;
16304;SDS011;8261;47.678;-122.174;2022-08-18T00:21:21;5.65;;;1.52;;
16304;SDS011;8261;47.678;-122.174;2022-08-18T00:23:53;7.95;;;1.70;;
16304;SDS011;8261;47.678;-122.174;2022-08-18T00:26:24;4.30;;;1.75;;
16304;SDS011;8261;47.678;-122.174;2022-08-18T00:29:02;2.03;;;1.30;;
16304;SDS011;8261;47.678;-122.174;2022-08-18T00:31:36;2.75;;;1.63;;
16304;SDS011;8261;47.678;-122.174;2022-08-18T00:34:06;2.88;;;1.40;;
16304;SDS011;8261;47.678;-122.174;2022-08-18T00:36:38;3.17;;;1.40;;
16304;SDS011;8261;47.678;-122.174;2022-08-18T00:39:10;3.75;;;1.50;;
16304;SDS011;8261;47.678;-122.174;2022-08-18T00:41:42;1.83;;;1.60;;
16304;SDS011;8261;47.678;-122.174;2022-08-18T00:44:13;4.38;;;1.60;;
16304;SDS011;8261;47.678;-122.174;2022-08-18T00:46:48;3.10;;;1.40;;
16304;SDS011;8261;47.678;-122.174;2022-08-18T00:49:21;2.05;;;1.58;;
16304;SDS011;8261;47.678;-122.174;2022-08-18T00:51:52;3.03;;;1.60;;
16304;SDS011;8261;47.678;-122.174;2022-08-18T00:54:26;2.13;;;1.38;;
16304;SDS011;8261;47.678;-122.174;2022-08-18T00:57:02;2.80;;;1.73;;
16304;SDS011;8261;47.678;-122.174;2022-08-18T00:59:36;7.25;;;1.73;;
16304;SDS011;8261;47.678;-122.174;2022-08-18T01:02:15;6.13;;;1.60;;
16304;SDS011;8261;47.678;-122.174;2022-08-18T01:04:58;3.05;;;1.98;;
16304;SDS011;8261;47.678;-122.174;2022-08-18T01:07:35;3.00;;;1.50;;
16304;SDS011;8261;47.678;-122.174;2022-08-18T01:10:11;3.05;;;1.60;;
16304;SDS011;8261;47.678;-122.174;2022-08-18T01:12:44;3.15;;;1.50;;
16304;SDS011;8261;47.678;-122.174;2022-08-18T01:15:17;4.45;;;1.30;;
16304;SDS011;8261;47.678;-122.174;2022-08-18T01:17:59;2.88;;;1.40;;
16304;SDS011;8261;47.678;-122.174;2022-08-18T01:20:49;2.58;;;1.50;;
16304;SDS011;8261;47.678;-122.174;2022-08-18T01:23:45;2.65;;;1.38;;
16304;SDS011;8261;47.678;-122.174;2022-08-18T01:26:21;3.45;;;1.67;;
16304;SDS011;8261;47.678;-122.174;2022-08-18T01:28:53;3.78;;;1.58;;
16304;SDS011;8261;47.678;-122.174;2022-08-18T01:31:34;2.33;;;1.50;;
16304;SDS011;8261;47.678;-122.174;2022-08-18T01:34:21;4.07;;;1.00;;
16304;SDS011;8261;47.678;-122.174;2022-08-18T01:36:54;3.88;;;1.50;;
16304;SDS011;8261;47.678;-122.174;2022-08-18T01:39:28;3.15;;;1.40;;
16304;SDS011;8261;47.678;-122.174;2022-08-18T01:42:20;2.72;;;1.48;;
16304;SDS011;8261;47.678;-122.174;2022-08-18T01:44:52;4.53;;;1.40;;
16304;SDS011;8261;47.678;-122.174;2022-08-18T01:47:23;2.75;;;1.25;;
16304;SDS011;8261;47.678;-122.174;2022-08-18T01:50:13;1.95;;;1.38;;
16304;SDS011;8261;47.678;-122.174;2022-08-18T01:52:57;6.53;;;1.58;;
16304;SDS011;8261;47.678;-122.174;2022-08-18T01:55:39;2.20;;;1.70;;
16304;SDS011;8261;47.678;-122.174;2022-08-18T01:58:16;2.65;;;1.40;;
16304;SDS011;8261;47.678;-122.174;2022-08-18T02:03:45;3.08;;;1.80;;
16304;SDS011;8261;47.678;-122.174;2022-08-18T02:07:02;4.68;;;1.50;;
16304;SDS011;8261;47.678;-122.174;2022-08-18T02:10:02;1.40;;;1.30;;
16304;SDS011;8261;47.678;-122.174;2022-08-18T02:18:57;1.60;;;1.50;;
16304;SDS011;8261;47.678;-122.174;2022-08-18T02:21:30;1.88;;;1.40;;
16304;SDS011;8261;47.678;-122.174;2022-08-18T02:24:18;3.53;;;1.90;;
16304;SDS011;8261;47.678;-122.174;2022-08-18T02:27:16;5.50;;;1.87;;
16304;SDS011;8261;47.678;-122.174;2022-08-18T02:30:11;6.68;;;2.17;;
16304;SDS011;8261;47.678;-122.174;2022-08-18T02:33:12;2.83;;;1.70;;
16304;SDS011;8261;47.678;-122.174;2022-08-18T02:36:01;1.83;;;1.60;;
16304;SDS011;8261;47.678;-122.174;2022-08-18T02:38:59;3.97;;;1.80;;
16304;SDS011;8261;47.678;-122.174;2022-08-18T02:41:31;3.42;;;1.40;;
16304;SDS011;8261;47.678;-122.174;2022-08-18T02:44:23;4.50;;;1.60;;
16304;SDS011;8261;47.678;-122.174;2022-08-18T02:47:09;2.38;;;1.52;;
16304;SDS011;8261;47.678;-122.174;2022-08-18T02:49:51;2.27;;;1.53;;
16304;SDS011;8261;47.678;-122.174;2022-08-18T02:52:37;5.23;;;1.83;;
16304;SDS011;8261;47.678;-122.174;2022-08-18T02:55:21;2.30;;;1.60;;
16304;SDS011;8261;47.678;-122.174;2022-08-18T02:58:05;4.37;;;1.80;;
16304;SDS011;8261;47.678;-122.174;2022-08-18T03:00:37;4.37;;;1.43;;
16304;SDS011;8261;47.678;-122.174;2022-08-18T03:03:22;5.53;;;1.70;;
16304;SDS011;8261;47.678;-122.174;2022-08-18T03:06:18;3.00;;;1.20;;
16304;SDS011;8261;47.678;-122.174;2022-08-18T03:09:02;2.53;;;1.43;;
16304;SDS011;8261;47.678;-122.174;2022-08-18T03:11:34;2.13;;;1.30;;
16304;SDS011;8261;47.678;-122.174;2022-08-18T03:14:09;2.63;;;1.33;;
16304;SDS011;8261;47.678;-122.174;2022-08-18T03:16:42;4.10;;;1.50;;
16304;SDS011;8261;47.678;-122.174;2022-08-18T03:19:28;3.67;;;1.50;;
16304;SDS011;8261;47.678;-122.174;2022-08-18T03:22:29;3.87;;;1.67;;
16304;SDS011;8261;47.678;-122.174;2022-08-18T03:25:27;3.33;;;1.40;;
16304;SDS011;8261;47.678;-122.174;2022-08-18T03:28:13;2.17;;;1.50;;
16304;SDS011;8261;47.678;-122.174;2022-08-18T03:31:12;1.90;;;1.40;;
16304;SDS011;8261;47.678;-122.174;2022-08-18T03:34:13;3.27;;;1.70;;
16304;SDS011;8261;47.678;-122.174;2022-08-18T03:37:01;4.37;;;1.60;;
16304;SDS011;8261;47.678;-122.174;2022-08-18T03:42:56;1.87;;;1.50;;
16304;SDS011;8261;47.678;-122.174;2022-08-18T03:45:48;5.60;;;3.60;;
16304;SDS011;8261;47.678;-122.174;2022-08-18T03:48:20;3.63;;;2.30;;
16304;SDS011;8261;47.678;-122.174;2022-08-18T03:50:54;4.67;;;2.40;;
16304;SDS011;8261;47.678;-122.174;2022-08-18T03:53:35;4.40;;;2.07;;
16304;SDS011;8261;47.678;-122.174;2022-08-18T03:56:10;2.43;;;1.50;;
16304;SDS011;8261;47.678;-122.174;2022-08-18T03:58:51;2.30;;;1.43;;
16304;SDS011;8261;47.678;-122.174;2022-08-18T04:01:30;5.97;;;1.30;;
16304;SDS011;8261;47.678;-122.174;2022-08-18T04:04:14;3.80;;;1.37;;
16304;SDS011;8261;47.678;-122.174;2022-08-18T04:06:50;1.80;;;1.60;;
16304;SDS011;8261;47.678;-122.174;2022-08-18T04:09:38;3.00;;;1.40;;
16304;SDS011;8261;47.678;-122.174;2022-08-18T04:12:23;3.27;;;1.43;;
16304;SDS011;8261;47.678;-122.174;2022-08-18T04:15:00;3.43;;;1.43;;
16304;SDS011;8261;47.678;-122.174;2022-08-18T04:17:35;2.00;;;1.60;;
16304;SDS011;8261;47.678;-122.174;2022-08-18T04:20:26;2.30;;;1.50;;
16304;SDS011;8261;47.678;-122.174;2022-08-18T04:23:25;4.10;;;1.87;;
16304;SDS011;8261;47.678;-122.174;2022-08-18T04:26:10;3.37;;;1.73;;
16304;SDS011;8261;47.678;-122.174;2022-08-18T04:28:45;2.07;;;1.67;;
16304;SDS011;8261;47.678;-122.174;2022-08-18T04:31:18;4.30;;;1.53;;
16304;SDS011;8261;47.678;-122.174;2022-08-18T04:33:53;3.57;;;1.80;;
16304;SDS011;8261;47.678;-122.174;2022-08-18T04:36:25;5.27;;;2.07;;
16304;SDS011;8261;47.678;-122.174;2022-08-18T04:38:58;4.80;;;1.60;;
16304;SDS011;8261;47.678;-122.174;2022-08-18T04:41:30;3.77;;;1.57;;
16304;SDS011;8261;47.678;-122.174;2022-08-18T04:44:02;2.60;;;1.63;;
16304;SDS011;8261;47.678;-122.174;2022-08-18T04:46:38;1.60;;;1.50;;
16304;SDS011;8261;47.678;-122.174;2022-08-18T04:49:11;2.00;;;1.37;;
16304;SDS011;8261;47.678;-122.174;2022-08-18T04:51:43;2.40;;;1.63;;
16304;SDS011;8261;47.678;-122.174;2022-08-18T04:55:01;5.97;;;1.73;;
16304;SDS011;8261;47.678;-122.174;2022-08-18T04:57:31;2.30;;;1.70;;
16304;SDS011;8261;47.678;-122.174;2022-08-18T05:00:03;2.17;;;1.53;;
16304;SDS011;8261;47.678;-122.174;2022-08-18T05:02:38;1.60;;;1.50;;
16304;SDS011;8261;47.678;-122.174;2022-08-18T05:05:10;1.93;;;1.60;;
16304;SDS011;8261;47.678;-122.174;2022-08-18T05:07:44;1.70;;;1.60;;
16304;SDS011;8261;47.678;-122.174;2022-08-18T05:10:17;2.90;;;1.73;;
16304;SDS011;8261;47.678;-122.174;2022-08-18T05:12:50;5.03;;;1.90;;
16304;SDS011;8261;47.678;-122.174;2022-08-18T05:15:21;4.63;;;2.10;;
16304;SDS011;8261;47.678;-122.174;2022-08-18T05:17:55;5.27;;;1.80;;
16304;SDS011;8261;47.678;-122.174;2022-08-18T05:20:27;2.63;;;2.17;;
16304;SDS011;8261;47.678;-122.174;2022-08-18T05:22:58;3.67;;;1.90;;
16304;SDS011;8261;47.678;-122.174;2022-08-18T05:25:30;2.53;;;2.00;;
16304;SDS011;8261;47.678;-122.174;2022-08-18T05:28:18;4.33;;;2.20;;
16304;SDS011;8261;47.678;-122.174;2022-08-18T05:30:50;3.97;;;2.30;;
16304;SDS011;8261;47.678;-122.174;2022-08-18T05:33:28;4.97;;;2.40;;
16304;SDS011;8261;47.678;-122.174;2022-08-18T05:36:00;3.47;;;2.67;;
16304;SDS011;8261;47.678;-122.174;2022-08-18T05:38:37;7.17;;;3.37;;
16304;SDS011;8261;47.678;-122.174;2022-08-18T05:41:24;6.43;;;3.10;;
16304;SDS011;8261;47.678;-122.174;2022-08-18T05:44:01;5.87;;;3.47;;
16304;SDS011;8261;47.678;-122.174;2022-08-18T05:46:36;5.17;;;3.17;;
16304;SDS011;8261;47.678;-122.174;2022-08-18T05:49:14;3.23;;;2.63;;
16304;SDS011;8261;47.678;-122.174;2022-08-18T05:51:47;3.83;;;2.50;;
16304;SDS011;8261;47.678;-122.174;2022-08-18T05:54:21;2.40;;;2.20;;
16304;SDS011;8261;47.678;-122.174;2022-08-18T05:57:11;2.87;;;2.00;;
16304;SDS011;8261;47.678;-122.174;2022-08-18T05:59:46;4.00;;;2.07;;
16304;SDS011;8261;47.678;-122.174;2022-08-18T06:02:31;2.73;;;1.87;;
16304;SDS011;8261;47.678;-122.174;2022-08-18T06:05:09;5.03;;;1.70;;
16304;SDS011;8261;47.678;-122.174;2022-08-18T06:07:45;4.30;;;1.90;;
16304;SDS011;8261;47.678;-122.174;2022-08-18T06:10:22;2.57;;;1.80;;
16304;SDS011;8261;47.678;-122.174;2022-08-18T06:12:55;5.23;;;1.87;;
16304;SDS011;8261;47.678;-122.174;2022-08-18T06:15:30;7.20;;;2.10;;
16304;SDS011;8261;47.678;-122.174;2022-08-18T06:18:18;3.30;;;1.80;;
16304;SDS011;8261;47.678;-122.174;2022-08-18T06:21:09;2.60;;;1.70;;
16304;SDS011;8261;47.678;-122.174;2022-08-18T06:23:50;1.93;;;1.60;;
16304;SDS011;8261;47.678;-122.174;2022-08-18T06:26:30;2.37;;;1.73;;
16304;SDS011;8261;47.678;-122.174;2022-08-18T06:29:11;2.97;;;1.87;;
16304;SDS011;8261;47.678;-122.174;2022-08-18T06:31:55;1.57;;;1.30;;
16304;SDS011;8261;47.678;-122.174;2022-08-18T06:34:34;3.60;;;1.43;;
16304;SDS011;8261;47.678;-122.174;2022-08-18T06:37:19;4.47;;;1.73;;
16304;SDS011;8261;47.678;-122.174;2022-08-18T06:39:56;3.20;;;1.87;;
16304;SDS011;8261;47.678;-122.174;2022-08-18T06:42:29;4.63;;;1.90;;
16304;SDS011;8261;47.678;-122.174;2022-08-18T06:45:07;4.23;;;1.70;;
16304;SDS011;8261;47.678;-122.174;2022-08-18T06:47:46;2.43;;;1.67;;
16304;SDS011;8261;47.678;-122.174;2022-08-18T06:50:27;2.83;;;1.60;;
16304;SDS011;8261;47.678;-122.174;2022-08-18T06:53:11;2.33;;;1.73;;
16304;SDS011;8261;47.678;-122.174;2022-08-18T06:55:55;3.33;;;2.10;;
16304;SDS011;8261;47.678;-122.174;2022-08-18T06:58:27;4.27;;;1.80;;
16304;SDS011;8261;47.678;-122.174;2022-08-18T07:01:00;3.53;;;2.00;;
16304;SDS011;8261;47.678;-122.174;2022-08-18T07:03:42;6.20;;;2.00;;
16304;SDS011;8261;47.678;-122.174;2022-08-18T07:06:24;4.67;;;2.80;;
16304;SDS011;8261;47.678;-122.174;2022-08-18T07:09:20;4.33;;;2.43;;
16304;SDS011;8261;47.678;-122.174;2022-08-18T07:11:58;6.60;;;2.20;;
16304;SDS011;8261;47.678;-122.174;2022-08-18T07:14:41;3.30;;;1.77;;
16304;SDS011;8261;47.678;-122.174;2022-08-18T07:17:18;6.13;;;2.07;;
16304;SDS011;8261;47.678;-122.174;2022-08-18T07:20:17;3.20;;;1.70;;
16304;SDS011;8261;47.678;-122.174;2022-08-18T07:22:52;3.30;;;1.90;;
16304;SDS011;8261;47.678;-122.174;2022-08-18T07:25:29;2.90;;;1.67;;
16304;SDS011;8261;47.678;-122.174;2022-08-18T07:28:07;3.70;;;1.40;;
16304;SDS011;8261;47.678;-122.174;2022-08-18T07:31:18;1.33;;;1.23;;
16304;SDS011;8261;47.678;-122.174;2022-08-18T07:34:03;2.73;;;1.20;;
16304;SDS011;8261;47.678;-122.174;2022-08-18T07:36:40;3.60;;;1.50;;
16304;SDS011;8261;47.678;-122.174;2022-08-18T07:39:19;4.47;;;1.40;;
16304;SDS011;8261;47.678;-122.174;2022-08-18T07:41:57;3.13;;;1.40;;
16304;SDS011;8261;47.678;-122.174;2022-08-18T07:44:38;2.07;;;1.40;;
16304;SDS011;8261;47.678;-122.174;2022-08-18T07:47:15;3.60;;;1.40;;
16304;SDS011;8261;47.678;-122.174;2022-08-18T07:49:50;8.30;;;1.60;;
16304;SDS011;8261;47.678;-122.174;2022-08-18T07:52:47;2.07;;;1.43;;
16304;SDS011;8261;47.678;-122.174;2022-08-18T07:55:27;2.03;;;1.27;;
16304;SDS011;8261;47.678;-122.174;2022-08-18T07:58:08;2.47;;;1.23;;
16304;SDS011;8261;47.678;-122.174;2022-08-18T08:00:49;1.73;;;1.40;;
16304;SDS011;8261;47.678;-122.174;2022-08-18T08:03:30;2.60;;;1.40;;
16304;SDS011;8261;47.678;-122.174;2022-08-18T08:06:12;2.37;;;1.10;;
16304;SDS011;8261;47.678;-122.174;2022-08-18T08:08:49;2.23;;;1.30;;
16304;SDS011;8261;47.678;-122.174;2022-08-18T08:11:31;2.43;;;1.20;;
16304;SDS011;8261;47.678;-122.174;2022-08-18T08:17:09;2.53;;;1.10;;
16304;SDS011;8261;47.678;-122.174;2022-08-18T08:22:54;3.10;;;1.33;;
16304;SDS011;8261;47.678;-122.174;2022-08-18T08:25:36;1.67;;;1.20;;
16304;SDS011;8261;47.678;-122.174;2022-08-18T08:28:22;2.23;;;1.40;;
16304;SDS011;8261;47.678;-122.174;2022-08-18T08:31:06;2.43;;;1.30;;
16304;SDS011;8261;47.678;-122.174;2022-08-18T08:39:19;1.57;;;1.40;;
16304;SDS011;8261;47.678;-122.174;2022-08-18T08:41:58;1.43;;;1.33;;
16304;SDS011;8261;47.678;-122.174;2022-08-18T08:44:57;2.17;;;1.30;;
16304;SDS011;8261;47.678;-122.174;2022-08-18T08:47:33;2.07;;;1.40;;
16304;SDS011;8261;47.678;-122.174;2022-08-18T08:50:10;2.80;;;1.30;;
16304;SDS011;8261;47.678;-122.174;2022-08-18T08:52:45;1.73;;;1.30;;
16304;SDS011;8261;47.678;-122.174;2022-08-18T08:55:23;4.20;;;1.40;;
16304;SDS011;8261;47.678;-122.174;2022-08-18T08:57:59;2.83;;;1.37;;
16304;SDS011;8261;47.678;-122.174;2022-08-18T09:00:42;1.67;;;1.37;;
16304;SDS011;8261;47.678;-122.174;2022-08-18T09:03:22;2.97;;;1.30;;
16304;SDS011;8261;47.678;-122.174;2022-08-18T09:06:04;1.80;;;1.27;;
16304;SDS011;8261;47.678;-122.174;2022-08-18T09:08:55;1.87;;;1.03;;
16304;SDS011;8261;47.678;-122.174;2022-08-18T09:11:46;1.50;;;1.20;;
16304;SDS011;8261;47.678;-122.174;2022-08-18T09:14:48;2.80;;;1.30;;
16304;SDS011;8261;47.678;-122.174;2022-08-18T09:17:50;2.63;;;1.30;;
16304;SDS011;8261;47.678;-122.174;2022-08-18T09:20:40;2.77;;;1.40;;
16304;SDS011;8261;47.678;-122.174;2022-08-18T09:23:29;2.50;;;1.13;;
16304;SDS011;8261;47.678;-122.174;2022-08-18T09:28:54;1.50;;;1.40;;
16304;SDS011;8261;47.678;-122.174;2022-08-18T09:31:27;2.70;;;1.30;;
16304;SDS011;8261;47.678;-122.174;2022-08-18T09:34:16;2.60;;;1.57;;
16304;SDS011;8261;47.678;-122.174;2022-08-18T09:37:14;1.40;;;1.23;;
16304;SDS011;8261;47.678;-122.174;2022-08-18T09:39:52;2.33;;;1.23;;
16304;SDS011;8261;47.678;-122.174;2022-08-18T09:43:09;2.17;;;1.40;;
16304;SDS011;8261;47.678;-122.174;2022-08-18T09:45:53;3.17;;;1.60;;
16304;SDS011;8261;47.678;-122.174;2022-08-18T09:48:28;1.70;;;1.50;;
16304;SDS011;8261;47.678;-122.174;2022-08-18T09:57:06;3.40;;;1.40;;
16304;SDS011;8261;47.678;-122.174;2022-08-18T10:03:03;3.97;;;2.13;;
16304;SDS011;8261;47.678;-122.174;2022-08-18T10:08:57;2.30;;;1.70;;
16304;SDS011;8261;47.678;-122.174;2022-08-18T10:18:21;3.63;;;1.67;;
16304;SDS011;8261;47.678;-122.174;2022-08-18T10:21:11;3.13;;;1.90;;
16304;SDS011;8261;47.678;-122.174;2022-08-18T10:24:16;4.60;;;1.80;;
16304;SDS011;8261;47.678;-122.174;2022-08-18T10:27:03;4.47;;;1.80;;
16304;SDS011;8261;47.678;-122.174;2022-08-18T10:29:51;2.43;;;1.70;;
16304;SDS011;8261;47.678;-122.174;2022-08-18T10:32:36;1.93;;;1.70;;
16304;SDS011;8261;47.678;-122.174;2022-08-18T10:38:36;3.40;;;1.67;;
16304;SDS011;8261;47.678;-122.174;2022-08-18T10:41:20;3.10;;;1.23;;
16304;SDS011;8261;47.678;-122.174;2022-08-18T10:43:57;3.27;;;1.50;;
16304;SDS011;8261;47.678;-122.174;2022-08-18T10:46:50;2.90;;;1.50;;
16304;SDS011;8261;47.678;-122.174;2022-08-18T10:49:26;2.50;;;1.50;;
16304;SDS011;8261;47.678;-122.174;2022-08-18T10:58:24;3.50;;;1.90;;
16304;SDS011;8261;47.678;-122.174;2022-08-18T11:01:13;1.70;;;1.50;;
16304;SDS011;8261;47.678;-122.174;2022-08-18T11:04:02;3.03;;;1.70;;
16304;SDS011;8261;47.678;-122.174;2022-08-18T11:09:49;3.37;;;2.00;;
16304;SDS011;8261;47.678;-122.174;2022-08-18T11:12:50;3.03;;;1.80;;
16304;SDS011;8261;47.678;-122.174;2022-08-18T11:15:36;2.60;;;1.90;;
16304;SDS011;8261;47.678;-122.174;2022-08-18T11:18:19;2.10;;;1.90;;
16304;SDS011;8261;47.678;-122.174;2022-08-18T11:21:22;3.80;;;1.90;;
16304;SDS011;8261;47.678;-122.174;2022-08-18T11:24:11;2.50;;;1.70;;
16304;SDS011;8261;47.678;-122.174;2022-08-18T11:26:45;2.10;;;1.90;;
16304;SDS011;8261;47.678;-122.174;2022-08-18T11:29:30;2.53;;;1.57;;
16304;SDS011;8261;47.678;-122.174;2022-08-18T11:32:04;4.00;;;1.73;;
16304;SDS011;8261;47.678;-122.174;2022-08-18T11:34:44;5.43;;;2.13;;
16304;SDS011;8261;47.678;-122.174;2022-08-18T11:37:23;2.10;;;1.73;;
16304;SDS011;8261;47.678;-122.174;2022-08-18T11:40:28;5.87;;;1.80;;
16304;SDS011;8261;47.678;-122.174;2022-08-18T11:43:25;4.40;;;1.80;;
16304;SDS011;8261;47.678;-122.174;2022-08-18T11:46:11;4.80;;;1.80;;
16304;SDS011;8261;47.678;-122.174;2022-08-18T11:48:54;3.60;;;1.87;;
16304;SDS011;8261;47.678;-122.174;2022-08-18T11:51:28;3.97;;;1.90;;
16304;SDS011;8261;47.678;-122.174;2022-08-18T11:54:32;2.47;;;1.80;;
16304;SDS011;8261;47.678;-122.174;2022-08-18T11:57:37;2.50;;;1.80;;
16304;SDS011;8261;47.678;-122.174;2022-08-18T12:00:51;4.90;;;1.90;;
16304;SDS011;8261;47.678;-122.174;2022-08-18T12:03:33;2.90;;;2.07;;
16304;SDS011;8261;47.678;-122.174;2022-08-18T12:06:18;3.33;;;2.37;;
16304;SDS011;8261;47.678;-122.174;2022-08-18T12:09:14;4.10;;;2.20;;
16304;SDS011;8261;47.678;-122.174;2022-08-18T12:12:13;2.90;;;1.60;;
16304;SDS011;8261;47.678;-122.174;2022-08-18T12:14:52;5.50;;;1.87;;
16304;SDS011;8261;47.678;-122.174;2022-08-18T12:17:38;4.13;;;1.70;;
16304;SDS011;8261;47.678;-122.174;2022-08-18T12:20:18;2.57;;;2.10;;
16304;SDS011;8261;47.678;-122.174;2022-08-18T12:22:50;3.50;;;1.67;;
16304;SDS011;8261;47.678;-122.174;2022-08-18T12:25:26;2.80;;;1.93;;
16304;SDS011;8261;47.678;-122.174;2022-08-18T12:27:58;5.60;;;2.00;;
16304;SDS011;8261;47.678;-122.174;2022-08-18T12:30:38;3.73;;;2.00;;
16304;SDS011;8261;47.678;-122.174;2022-08-18T12:33:11;2.30;;;2.10;;
16304;SDS011;8261;47.678;-122.174;2022-08-18T12:35:51;3.53;;;1.70;;
16304;SDS011;8261;47.678;-122.174;2022-08-18T12:38:22;2.53;;;1.50;;
16304;SDS011;8261;47.678;-122.174;2022-08-18T12:40:54;2.53;;;1.97;;
16304;SDS011;8261;47.678;-122.174;2022-08-18T12:43:25;3.70;;;1.83;;
16304;SDS011;8261;47.678;-122.174;2022-08-18T12:46:00;2.37;;;1.63;;
16304;SDS011;8261;47.678;-122.174;2022-08-18T12:48:37;1.97;;;1.67;;
16304;SDS011;8261;47.678;-122.174;2022-08-18T12:51:09;3.87;;;2.13;;
16304;SDS011;8261;47.678;-122.174;2022-08-18T12:53:41;5.73;;;2.17;;
16304;SDS011;8261;47.678;-122.174;2022-08-18T12:56:25;2.87;;;1.90;;
16304;SDS011;8261;47.678;-122.174;2022-08-18T12:59:01;2.90;;;2.23;;
16304;SDS011;8261;47.678;-122.174;2022-08-18T13:01:37;3.67;;;2.13;;
16304;SDS011;8261;47.678;-122.174;2022-08-18T13:04:10;3.07;;;2.03;;
16304;SDS011;8261;47.678;-122.174;2022-08-18T13:06:45;3.73;;;2.00;;
16304;SDS011;8261;47.678;-122.174;2022-08-18T13:09:26;3.47;;;2.03;;
16304;SDS011;8261;47.678;-122.174;2022-08-18T13:12:18;2.60;;;1.67;;
16304;SDS011;8261;47.678;-122.174;2022-08-18T13:14:54;5.43;;;1.93;;
16304;SDS011;8261;47.678;-122.174;2022-08-18T13:17:29;3.73;;;2.00;;
16304;SDS011;8261;47.678;-122.174;2022-08-18T13:20:08;4.33;;;1.97;;
16304;SDS011;8261;47.678;-122.174;2022-08-18T13:22:41;4.33;;;1.87;;
16304;SDS011;8261;47.678;-122.174;2022-08-18T13:25:15;4.50;;;1.80;;
16304;SDS011;8261;47.678;-122.174;2022-08-18T13:27:59;2.17;;;1.73;;
16304;SDS011;8261;47.678;-122.174;2022-08-18T13:30:30;3.50;;;1.70;;
16304;SDS011;8261;47.678;-122.174;2022-08-18T13:33:06;1.83;;;1.60;;
16304;SDS011;8261;47.678;-122.174;2022-08-18T13:35:58;5.00;;;1.70;;
16304;SDS011;8261;47.678;-122.174;2022-08-18T13:38:29;2.30;;;1.90;;
16304;SDS011;8261;47.678;-122.174;2022-08-18T13:41:02;2.60;;;1.70;;
16304;SDS011;8261;47.678;-122.174;2022-08-18T13:43:42;3.03;;;1.83;;
16304;SDS011;8261;47.678;-122.174;2022-08-18T13:46:15;4.10;;;2.27;;
16304;SDS011;8261;47.678;-122.174;2022-08-18T13:48:57;3.43;;;2.30;;
16304;SDS011;8261;47.678;-122.174;2022-08-18T13:51:29;6.40;;;2.00;;
16304;SDS011;8261;47.678;-122.174;2022-08-18T13:54:02;4.10;;;2.53;;
16304;SDS011;8261;47.678;-122.174;2022-08-18T13:56:55;3.23;;;2.00;;
16304;SDS011;8261;47.678;-122.174;2022-08-18T13:59:27;3.90;;;2.10;;
16304;SDS011;8261;47.678;-122.174;2022-08-18T14:02:00;4.13;;;1.93;;
16304;SDS011;8261;47.678;-122.174;2022-08-18T14:04:37;3.73;;;2.30;;
16304;SDS011;8261;47.678;-122.174;2022-08-18T14:07:10;3.00;;;1.70;;
16304;SDS011;8261;47.678;-122.174;2022-08-18T14:09:44;2.10;;;1.90;;
16304;SDS011;8261;47.678;-122.174;2022-08-18T14:12:19;4.50;;;1.93;;
16304;SDS011;8261;47.678;-122.174;2022-08-18T14:14:58;2.63;;;1.87;;
16304;SDS011;8261;47.678;-122.174;2022-08-18T14:17:31;2.43;;;2.10;;
16304;SDS011;8261;47.678;-122.174;2022-08-18T14:20:07;3.70;;;1.90;;
16304;SDS011;8261;47.678;-122.174;2022-08-18T14:22:57;4.30;;;1.80;;
16304;SDS011;8261;47.678;-122.174;2022-08-18T14:25:50;2.73;;;2.10;;
16304;SDS011;8261;47.678;-122.174;2022-08-18T14:28:39;3.00;;;2.20;;
16304;SDS011;8261;47.678;-122.174;2022-08-18T14:31:13;3.60;;;1.93;;
16304;SDS011;8261;47.678;-122.174;2022-08-18T14:33:48;4.30;;;1.90;;
16304;SDS011;8261;47.678;-122.174;2022-08-18T14:36:25;8.50;;;2.00;;
16304;SDS011;8261;47.678;-122.174;2022-08-18T14:38:57;3.20;;;2.37;;
16304;SDS011;8261;47.678;-122.174;2022-08-18T14:41:34;2.87;;;2.30;;
16304;SDS011;8261;47.678;-122.174;2022-08-18T14:44:20;4.27;;;2.03;;
16304;SDS011;8261;47.678;-122.174;2022-08-18T14:46:58;2.87;;;1.83;;
16304;SDS011;8261;47.678;-122.174;2022-08-18T14:49:31;7.03;;;2.10;;
16304;SDS011;8261;47.678;-122.174;2022-08-18T14:52:19;4.90;;;2.07;;
16304;SDS011;8261;47.678;-122.174;2022-08-18T14:55:05;3.40;;;2.03;;
16304;SDS011;8261;47.678;-122.174;2022-08-18T14:57:38;4.30;;;2.17;;
16304;SDS011;8261;47.678;-122.174;2022-08-18T15:00:11;3.07;;;2.17;;
16304;SDS011;8261;47.678;-122.174;2022-08-18T15:02:48;2.77;;;2.13;;
16304;SDS011;8261;47.678;-122.174;2022-08-18T15:05:37;3.33;;;2.03;;
16304;SDS011;8261;47.678;-122.174;2022-08-18T15:10:59;3.87;;;2.27;;
16304;SDS011;8261;47.678;-122.174;2022-08-18T15:13:42;4.83;;;2.00;;
16304;SDS011;8261;47.678;-122.174;2022-08-18T15:16:28;3.27;;;1.90;;
16304;SDS011;8261;47.678;-122.174;2022-08-18T15:19:08;4.20;;;2.63;;
16304;SDS011;8261;47.678;-122.174;2022-08-18T15:21:56;3.97;;;2.20;;
16304;SDS011;8261;47.678;-122.174;2022-08-18T15:24:59;4.00;;;2.60;;
16304;SDS011;8261;47.678;-122.174;2022-08-18T15:27:50;4.57;;;2.40;;
16304;SDS011;8261;47.678;-122.174;2022-08-18T15:30:27;4.17;;;2.33;;
16304;SDS011;8261;47.678;-122.174;2022-08-18T15:33:02;4.83;;;2.30;;
16304;SDS011;8261;47.678;-122.174;2022-08-18T15:35:54;3.73;;;2.67;;
16304;SDS011;8261;47.678;-122.174;2022-08-18T15:38:35;6.23;;;2.33;;
16304;SDS011;8261;47.678;-122.174;2022-08-18T15:41:09;3.23;;;2.10;;
16304;SDS011;8261;47.678;-122.174;2022-08-18T15:43:57;16.17;;;2.80;;
16304;SDS011;8261;47.678;-122.174;2022-08-18T15:46:37;2.50;;;1.97;;
16304;SDS011;8261;47.678;-122.174;2022-08-18T15:49:18;6.73;;;2.40;;
16304;SDS011;8261;47.678;-122.174;2022-08-18T15:52:04;3.93;;;2.47;;
16304;SDS011;8261;47.678;-122.174;2022-08-18T15:54:37;5.67;;;2.17;;
16304;SDS011;8261;47.678;-122.174;2022-08-18T15:57:19;4.70;;;2.50;;
16304;SDS011;8261;47.678;-122.174;2022-08-18T16:00:06;4.20;;;2.30;;
16304;SDS011;8261;47.678;-122.174;2022-08-18T16:02:55;5.07;;;2.63;;
16304;SDS011;8261;47.678;-122.174;2022-08-18T16:05:46;6.43;;;2.17;;
16304;SDS011;8261;47.678;-122.174;2022-08-18T16:08:23;3.67;;;2.77;;
16304;SDS011;8261;47.678;-122.174;2022-08-18T16:11:11;5.60;;;2.50;;
16304;SDS011;8261;47.678;-122.174;2022-08-18T16:13:59;8.47;;;2.87;;
16304;SDS011;8261;47.678;-122.174;2022-08-18T16:16:30;8.57;;;2.80;;
16304;SDS011;8261;47.678;-122.174;2022-08-18T16:19:04;6.20;;;2.50;;
16304;SDS011;8261;47.678;-122.174;2022-08-18T16:21:36;5.10;;;2.57;;
16304;SDS011;8261;47.678;-122.174;2022-08-18T16:24:07;3.50;;;2.50;;
16304;SDS011;8261;47.678;-122.174;2022-08-18T16:26:43;3.97;;;2.50;;
16304;SDS011;8261;47.678;-122.174;2022-08-18T16:29:20;3.03;;;2.37;;
16304;SDS011;8261;47.678;-122.174;2022-08-18T16:31:52;7.43;;;2.80;;
16304;SDS011;8261;47.678;-122.174;2022-08-18T16:34:25;4.63;;;2.50;;
16304;SDS011;8261;47.678;-122.174;2022-08-18T16:36:56;5.97;;;2.60;;
16304;SDS011;8261;47.678;-122.174;2022-08-18T16:39:28;8.33;;;3.00;;
16304;SDS011;8261;47.678;-122.174;2022-08-18T16:42:01;7.03;;;2.97;;